sensor_id;sensor_type;location;lat;lon;timestamp;P1;durP1;ratioP1;P2;durP2;ratioP2
23304;SDS011;11821;51.456;8.844;2023-07-13T00:00:41;3.40;;;1.48;;
23304;SDS011;11821;51.456;8.844;2023-07-13T00:03:08;2.75;;;1.50;;
23304;SDS011;11821;51.456;8.844;2023-07-13T00:05:34;2.38;;;1.70;;
23304;SDS011;11821;51.456;8.844;2023-07-13T00:08:01;3.95;;;1.58;;
23304;SDS011;11821;51.456;8.844;2023-07-13T00:10:27;4.18;;;1.58;;
23304;SDS011;11821;51.456;8.844;2023-07-13T00:12:54;3.65;;;1.38;;
23304;SDS011;11821;51.456;8.844;2023-07-13T00:15:24;7.15;;;1.83;;
23304;SDS011;11821;51.456;8.844;2023-07-13T00:17:52;4.05;;;1.73;;
23304;SDS011;11821;51.456;8.844;2023-07-13T00:20:24;3.22;;;1.75;;
23304;SDS011;11821;51.456;8.844;2023-07-13T00:22:53;4.13;;;1.88;;
23304;SDS011;11821;51.456;8.844;2023-07-13T00:25:20;5.70;;;1.65;;
23304;SDS011;11821;51.456;8.844;2023-07-13T00:27:47;3.78;;;1.52;;
23304;SDS011;11821;51.456;8.844;2023-07-13T00:30:14;5.28;;;1.65;;
23304;SDS011;11821;51.456;8.844;2023-07-13T00:32:41;3.92;;;1.83;;
23304;SDS011;11821;51.456;8.844;2023-07-13T00:35:07;4.28;;;1.70;;
23304;SDS011;11821;51.456;8.844;2023-07-13T00:37:34;3.80;;;1.83;;
23304;SDS011;11821;51.456;8.844;2023-07-13T00:40:04;4.60;;;1.85;;
23304;SDS011;11821;51.456;8.844;2023-07-13T00:42:31;4.15;;;1.70;;
23304;SDS011;11821;51.456;8.844;2023-07-13T00:47:37;5.65;;;1.98;;
23304;SDS011;11821;51.456;8.844;2023-07-13T00:50:04;2.97;;;1.85;;
23304;SDS011;11821;51.456;8.844;2023-07-13T00:52:36;5.53;;;1.90;;
23304;SDS011;11821;51.456;8.844;2023-07-13T00:55:04;3.63;;;1.67;;
23304;SDS011;11821;51.456;8.844;2023-07-13T00:57:30;6.40;;;1.67;;
23304;SDS011;11821;51.456;8.844;2023-07-13T00:59:58;4.18;;;1.88;;
23304;SDS011;11821;51.456;8.844;2023-07-13T01:02:35;5.63;;;2.03;;
23304;SDS011;11821;51.456;8.844;2023-07-13T01:05:11;4.40;;;1.70;;
23304;SDS011;11821;51.456;8.844;2023-07-13T01:07:43;6.22;;;1.60;;
23304;SDS011;11821;51.456;8.844;2023-07-13T01:10:11;4.60;;;1.95;;
23304;SDS011;11821;51.456;8.844;2023-07-13T01:12:38;6.57;;;1.95;;
23304;SDS011;11821;51.456;8.844;2023-07-13T01:15:05;3.28;;;2.05;;
23304;SDS011;11821;51.456;8.844;2023-07-13T01:17:51;5.10;;;2.10;;
23304;SDS011;11821;51.456;8.844;2023-07-13T01:20:18;6.38;;;2.40;;
23304;SDS011;11821;51.456;8.844;2023-07-13T01:22:44;4.50;;;1.98;;
23304;SDS011;11821;51.456;8.844;2023-07-13T01:25:10;6.38;;;2.10;;
23304;SDS011;11821;51.456;8.844;2023-07-13T01:27:36;4.43;;;1.83;;
23304;SDS011;11821;51.456;8.844;2023-07-13T01:30:07;4.75;;;2.03;;
23304;SDS011;11821;51.456;8.844;2023-07-13T01:32:35;4.00;;;2.42;;
23304;SDS011;11821;51.456;8.844;2023-07-13T01:35:02;4.68;;;2.03;;
23304;SDS011;11821;51.456;8.844;2023-07-13T01:37:28;4.00;;;2.20;;
23304;SDS011;11821;51.456;8.844;2023-07-13T01:39:59;3.40;;;1.70;;
23304;SDS011;11821;51.456;8.844;2023-07-13T01:42:25;5.85;;;1.80;;
23304;SDS011;11821;51.456;8.844;2023-07-13T01:44:52;3.60;;;2.33;;
23304;SDS011;11821;51.456;8.844;2023-07-13T01:47:18;7.70;;;2.00;;
23304;SDS011;11821;51.456;8.844;2023-07-13T01:49:45;6.40;;;2.30;;
23304;SDS011;11821;51.456;8.844;2023-07-13T01:52:13;2.72;;;2.17;;
23304;SDS011;11821;51.456;8.844;2023-07-13T01:54:40;3.47;;;2.22;;
23304;SDS011;11821;51.456;8.844;2023-07-13T01:57:06;5.82;;;1.83;;
23304;SDS011;11821;51.456;8.844;2023-07-13T01:59:32;4.75;;;2.13;;
23304;SDS011;11821;51.456;8.844;2023-07-13T02:01:59;11.70;;;2.40;;
23304;SDS011;11821;51.456;8.844;2023-07-13T02:04:25;5.50;;;2.15;;
23304;SDS011;11821;51.456;8.844;2023-07-13T02:06:52;3.25;;;2.13;;
23304;SDS011;11821;51.456;8.844;2023-07-13T02:09:18;5.07;;;2.15;;
23304;SDS011;11821;51.456;8.844;2023-07-13T02:11:44;4.53;;;1.90;;
23304;SDS011;11821;51.456;8.844;2023-07-13T02:14:11;2.60;;;1.95;;
23304;SDS011;11821;51.456;8.844;2023-07-13T02:16:37;5.22;;;2.28;;
23304;SDS011;11821;51.456;8.844;2023-07-13T02:19:04;6.22;;;2.40;;
23304;SDS011;11821;51.456;8.844;2023-07-13T02:21:32;8.13;;;2.40;;
23304;SDS011;11821;51.456;8.844;2023-07-13T02:23:58;5.15;;;2.38;;
23304;SDS011;11821;51.456;8.844;2023-07-13T02:26:25;4.22;;;2.17;;
23304;SDS011;11821;51.456;8.844;2023-07-13T02:28:53;6.72;;;2.20;;
23304;SDS011;11821;51.456;8.844;2023-07-13T02:31:19;4.47;;;1.95;;
23304;SDS011;11821;51.456;8.844;2023-07-13T02:33:46;6.22;;;2.15;;
23304;SDS011;11821;51.456;8.844;2023-07-13T02:36:12;6.65;;;2.30;;
23304;SDS011;11821;51.456;8.844;2023-07-13T02:38:40;4.13;;;2.50;;
23304;SDS011;11821;51.456;8.844;2023-07-13T02:41:06;3.08;;;2.17;;
23304;SDS011;11821;51.456;8.844;2023-07-13T02:43:34;4.57;;;2.30;;
23304;SDS011;11821;51.456;8.844;2023-07-13T02:46:01;2.88;;;2.00;;
23304;SDS011;11821;51.456;8.844;2023-07-13T02:48:33;2.80;;;2.03;;
23304;SDS011;11821;51.456;8.844;2023-07-13T02:50:59;6.88;;;1.88;;
23304;SDS011;11821;51.456;8.844;2023-07-13T02:53:26;4.13;;;2.00;;
23304;SDS011;11821;51.456;8.844;2023-07-13T02:55:52;4.97;;;1.90;;
23304;SDS011;11821;51.456;8.844;2023-07-13T03:02:06;3.50;;;1.92;;
23304;SDS011;11821;51.456;8.844;2023-07-13T03:04:34;3.67;;;2.08;;
23304;SDS011;11821;51.456;8.844;2023-07-13T03:07:02;3.67;;;1.88;;
23304;SDS011;11821;51.456;8.844;2023-07-13T03:09:34;4.50;;;1.90;;
23304;SDS011;11821;51.456;8.844;2023-07-13T03:12:04;4.30;;;1.77;;
23304;SDS011;11821;51.456;8.844;2023-07-13T03:14:32;3.15;;;1.90;;
23304;SDS011;11821;51.456;8.844;2023-07-13T03:17:00;9.32;;;2.10;;
23304;SDS011;11821;51.456;8.844;2023-07-13T03:19:30;3.85;;;2.05;;
23304;SDS011;11821;51.456;8.844;2023-07-13T03:21:56;3.28;;;1.77;;
23304;SDS011;11821;51.456;8.844;2023-07-13T03:24:22;3.05;;;1.90;;
23304;SDS011;11821;51.456;8.844;2023-07-13T03:26:51;3.75;;;2.50;;
23304;SDS011;11821;51.456;8.844;2023-07-13T03:29:18;2.97;;;2.10;;
23304;SDS011;11821;51.456;8.844;2023-07-13T03:31:45;6.10;;;2.67;;
23304;SDS011;11821;51.456;8.844;2023-07-13T03:34:11;3.55;;;2.13;;
23304;SDS011;11821;51.456;8.844;2023-07-13T03:36:38;2.60;;;1.90;;
23304;SDS011;11821;51.456;8.844;2023-07-13T03:39:08;3.75;;;2.00;;
23304;SDS011;11821;51.456;8.844;2023-07-13T03:41:55;4.22;;;2.05;;
23304;SDS011;11821;51.456;8.844;2023-07-13T03:44:22;3.58;;;2.15;;
23304;SDS011;11821;51.456;8.844;2023-07-13T03:46:53;6.82;;;1.90;;
23304;SDS011;11821;51.456;8.844;2023-07-13T03:49:20;5.55;;;2.40;;
23304;SDS011;11821;51.456;8.844;2023-07-13T03:51:46;3.13;;;1.60;;
23304;SDS011;11821;51.456;8.844;2023-07-13T03:54:12;2.22;;;1.90;;
23304;SDS011;11821;51.456;8.844;2023-07-13T03:56:39;3.78;;;2.22;;
23304;SDS011;11821;51.456;8.844;2023-07-13T03:59:07;4.85;;;2.05;;
23304;SDS011;11821;51.456;8.844;2023-07-13T04:01:33;4.05;;;1.98;;
23304;SDS011;11821;51.456;8.844;2023-07-13T04:04:00;3.88;;;1.92;;
23304;SDS011;11821;51.456;8.844;2023-07-13T04:06:27;2.63;;;1.52;;
23304;SDS011;11821;51.456;8.844;2023-07-13T04:08:56;5.80;;;1.83;;
23304;SDS011;11821;51.456;8.844;2023-07-13T04:11:25;4.80;;;2.10;;
23304;SDS011;11821;51.456;8.844;2023-07-13T04:13:55;3.70;;;1.88;;
23304;SDS011;11821;51.456;8.844;2023-07-13T04:16:21;3.53;;;1.60;;
23304;SDS011;11821;51.456;8.844;2023-07-13T04:18:48;5.03;;;2.22;;
23304;SDS011;11821;51.456;8.844;2023-07-13T04:21:15;4.15;;;1.60;;
23304;SDS011;11821;51.456;8.844;2023-07-13T04:23:42;4.18;;;1.88;;
23304;SDS011;11821;51.456;8.844;2023-07-13T04:26:08;7.20;;;2.00;;
23304;SDS011;11821;51.456;8.844;2023-07-13T04:28:34;9.38;;;2.00;;
23304;SDS011;11821;51.456;8.844;2023-07-13T04:31:01;2.30;;;1.38;;
23304;SDS011;11821;51.456;8.844;2023-07-13T04:33:27;4.95;;;1.50;;
23304;SDS011;11821;51.456;8.844;2023-07-13T04:35:54;4.55;;;1.63;;
23304;SDS011;11821;51.456;8.844;2023-07-13T04:38:25;2.78;;;1.10;;
23304;SDS011;11821;51.456;8.844;2023-07-13T04:40:57;6.47;;;1.23;;
23304;SDS011;11821;51.456;8.844;2023-07-13T04:43:26;2.85;;;1.20;;
23304;SDS011;11821;51.456;8.844;2023-07-13T04:45:53;5.60;;;1.40;;
23304;SDS011;11821;51.456;8.844;2023-07-13T04:48:20;5.97;;;1.20;;
23304;SDS011;11821;51.456;8.844;2023-07-13T04:50:47;7.25;;;1.80;;
23304;SDS011;11821;51.456;8.844;2023-07-13T04:53:13;2.85;;;1.33;;
23304;SDS011;11821;51.456;8.844;2023-07-13T04:55:40;3.13;;;1.33;;
23304;SDS011;11821;51.456;8.844;2023-07-13T04:58:06;4.10;;;1.15;;
23304;SDS011;11821;51.456;8.844;2023-07-13T05:00:32;6.07;;;1.50;;
23304;SDS011;11821;51.456;8.844;2023-07-13T05:02:59;3.38;;;1.45;;
23304;SDS011;11821;51.456;8.844;2023-07-13T05:05:26;2.35;;;1.10;;
23304;SDS011;11821;51.456;8.844;2023-07-13T05:07:53;5.15;;;1.27;;
23304;SDS011;11821;51.456;8.844;2023-07-13T05:10:20;3.95;;;1.10;;
23304;SDS011;11821;51.456;8.844;2023-07-13T05:12:46;2.60;;;1.10;;
23304;SDS011;11821;51.456;8.844;2023-07-13T05:15:13;4.25;;;1.00;;
23304;SDS011;11821;51.456;8.844;2023-07-13T05:17:40;4.43;;;1.42;;
23304;SDS011;11821;51.456;8.844;2023-07-13T05:20:07;3.08;;;1.20;;
23304;SDS011;11821;51.456;8.844;2023-07-13T05:22:34;2.30;;;0.80;;
23304;SDS011;11821;51.456;8.844;2023-07-13T05:25:01;5.43;;;0.90;;
23304;SDS011;11821;51.456;8.844;2023-07-13T05:27:30;7.30;;;1.10;;
23304;SDS011;11821;51.456;8.844;2023-07-13T05:29:56;6.60;;;1.23;;
23304;SDS011;11821;51.456;8.844;2023-07-13T05:32:23;3.35;;;1.02;;
23304;SDS011;11821;51.456;8.844;2023-07-13T05:34:49;5.15;;;1.20;;
23304;SDS011;11821;51.456;8.844;2023-07-13T05:37:15;5.47;;;1.35;;
23304;SDS011;11821;51.456;8.844;2023-07-13T05:39:41;3.15;;;1.05;;
23304;SDS011;11821;51.456;8.844;2023-07-13T05:42:08;2.90;;;0.90;;
23304;SDS011;11821;51.456;8.844;2023-07-13T05:44:34;5.20;;;1.17;;
23304;SDS011;11821;51.456;8.844;2023-07-13T05:47:00;4.72;;;1.30;;
23304;SDS011;11821;51.456;8.844;2023-07-13T05:49:27;8.70;;;1.35;;
23304;SDS011;11821;51.456;8.844;2023-07-13T05:51:56;5.20;;;1.35;;
23304;SDS011;11821;51.456;8.844;2023-07-13T05:54:22;5.22;;;1.13;;
23304;SDS011;11821;51.456;8.844;2023-07-13T05:56:49;4.80;;;0.88;;
23304;SDS011;11821;51.456;8.844;2023-07-13T05:59:15;4.00;;;1.40;;
23304;SDS011;11821;51.456;8.844;2023-07-13T06:01:42;7.78;;;1.20;;
23304;SDS011;11821;51.456;8.844;2023-07-13T06:04:09;5.95;;;1.33;;
23304;SDS011;11821;51.456;8.844;2023-07-13T06:06:35;15.98;;;1.95;;
23304;SDS011;11821;51.456;8.844;2023-07-13T06:09:01;5.78;;;1.20;;
23304;SDS011;11821;51.456;8.844;2023-07-13T06:11:28;3.20;;;1.15;;
23304;SDS011;11821;51.456;8.844;2023-07-13T06:13:55;3.25;;;1.02;;
23304;SDS011;11821;51.456;8.844;2023-07-13T06:16:22;7.45;;;1.08;;
23304;SDS011;11821;51.456;8.844;2023-07-13T06:18:49;4.90;;;1.25;;
23304;SDS011;11821;51.456;8.844;2023-07-13T06:21:16;3.13;;;1.00;;
23304;SDS011;11821;51.456;8.844;2023-07-13T06:23:46;5.38;;;1.10;;
23304;SDS011;11821;51.456;8.844;2023-07-13T06:26:14;2.72;;;0.80;;
23304;SDS011;11821;51.456;8.844;2023-07-13T06:28:41;9.43;;;0.95;;
23304;SDS011;11821;51.456;8.844;2023-07-13T06:31:08;2.80;;;0.70;;
23304;SDS011;11821;51.456;8.844;2023-07-13T06:33:35;7.93;;;0.98;;
23304;SDS011;11821;51.456;8.844;2023-07-13T06:36:03;5.97;;;0.90;;
23304;SDS011;11821;51.456;8.844;2023-07-13T06:38:30;4.78;;;0.80;;
23304;SDS011;11821;51.456;8.844;2023-07-13T06:40:57;1.50;;;0.80;;
23304;SDS011;11821;51.456;8.844;2023-07-13T06:43:24;5.65;;;1.08;;
23304;SDS011;11821;51.456;8.844;2023-07-13T06:45:51;3.72;;;0.90;;
23304;SDS011;11821;51.456;8.844;2023-07-13T06:48:18;6.68;;;0.73;;
23304;SDS011;11821;51.456;8.844;2023-07-13T06:50:45;2.97;;;1.17;;
23304;SDS011;11821;51.456;8.844;2023-07-13T06:53:13;4.68;;;0.95;;
23304;SDS011;11821;51.456;8.844;2023-07-13T06:55:40;2.55;;;1.05;;
23304;SDS011;11821;51.456;8.844;2023-07-13T06:58:06;1.23;;;0.70;;
23304;SDS011;11821;51.456;8.844;2023-07-13T07:00:32;3.83;;;0.80;;
23304;SDS011;11821;51.456;8.844;2023-07-13T07:02:59;4.03;;;0.85;;
23304;SDS011;11821;51.456;8.844;2023-07-13T07:05:25;2.97;;;0.82;;
23304;SDS011;11821;51.456;8.844;2023-07-13T07:07:52;3.80;;;0.90;;
23304;SDS011;11821;51.456;8.844;2023-07-13T07:10:20;3.80;;;1.10;;
23304;SDS011;11821;51.456;8.844;2023-07-13T07:12:47;3.75;;;1.13;;
23304;SDS011;11821;51.456;8.844;2023-07-13T07:15:13;3.92;;;0.80;;
23304;SDS011;11821;51.456;8.844;2023-07-13T07:17:40;3.50;;;1.10;;
23304;SDS011;11821;51.456;8.844;2023-07-13T07:20:06;4.32;;;0.98;;
23304;SDS011;11821;51.456;8.844;2023-07-13T07:22:33;8.10;;;1.00;;
23304;SDS011;11821;51.456;8.844;2023-07-13T07:24:59;3.70;;;0.85;;
23304;SDS011;11821;51.456;8.844;2023-07-13T07:27:26;4.53;;;0.93;;
23304;SDS011;11821;51.456;8.844;2023-07-13T07:29:53;2.40;;;0.80;;
23304;SDS011;11821;51.456;8.844;2023-07-13T07:32:19;2.80;;;0.90;;
23304;SDS011;11821;51.456;8.844;2023-07-13T07:34:46;3.70;;;1.10;;
23304;SDS011;11821;51.456;8.844;2023-07-13T07:37:13;2.05;;;0.70;;
23304;SDS011;11821;51.456;8.844;2023-07-13T07:39:40;3.17;;;1.27;;
23304;SDS011;11821;51.456;8.844;2023-07-13T07:42:06;2.17;;;0.70;;
23304;SDS011;11821;51.456;8.844;2023-07-13T07:44:33;6.97;;;1.08;;
23304;SDS011;11821;51.456;8.844;2023-07-13T07:47:00;4.28;;;1.00;;
23304;SDS011;11821;51.456;8.844;2023-07-13T07:49:27;2.35;;;0.80;;
23304;SDS011;11821;51.456;8.844;2023-07-13T07:51:53;3.72;;;1.38;;
23304;SDS011;11821;51.456;8.844;2023-07-13T07:54:20;7.57;;;1.05;;
23304;SDS011;11821;51.456;8.844;2023-07-13T07:56:46;4.43;;;1.00;;
23304;SDS011;11821;51.456;8.844;2023-07-13T07:59:12;3.42;;;0.85;;
23304;SDS011;11821;51.456;8.844;2023-07-13T08:01:38;2.15;;;0.70;;
23304;SDS011;11821;51.456;8.844;2023-07-13T08:04:05;3.85;;;0.90;;
23304;SDS011;11821;51.456;8.844;2023-07-13T08:06:32;5.05;;;0.90;;
23304;SDS011;11821;51.456;8.844;2023-07-13T08:08:59;7.18;;;1.20;;
23304;SDS011;11821;51.456;8.844;2023-07-13T08:11:27;4.13;;;1.00;;
23304;SDS011;11821;51.456;8.844;2023-07-13T08:13:53;2.85;;;0.60;;
23304;SDS011;11821;51.456;8.844;2023-07-13T08:16:19;1.75;;;0.75;;
23304;SDS011;11821;51.456;8.844;2023-07-13T08:18:46;1.83;;;1.27;;
23304;SDS011;11821;51.456;8.844;2023-07-13T08:21:12;3.30;;;0.82;;
23304;SDS011;11821;51.456;8.844;2023-07-13T08:23:38;3.00;;;1.30;;
23304;SDS011;11821;51.456;8.844;2023-07-13T08:26:05;4.45;;;1.20;;
23304;SDS011;11821;51.456;8.844;2023-07-13T08:28:33;2.53;;;0.90;;
23304;SDS011;11821;51.456;8.844;2023-07-13T08:31:00;4.25;;;1.15;;
23304;SDS011;11821;51.456;8.844;2023-07-13T08:33:30;2.63;;;0.85;;
23304;SDS011;11821;51.456;8.844;2023-07-13T08:35:57;3.67;;;1.00;;
23304;SDS011;11821;51.456;8.844;2023-07-13T08:38:23;4.00;;;1.15;;
23304;SDS011;11821;51.456;8.844;2023-07-13T08:40:53;4.60;;;1.00;;
23304;SDS011;11821;51.456;8.844;2023-07-13T08:43:39;3.58;;;1.10;;
23304;SDS011;11821;51.456;8.844;2023-07-13T08:46:09;2.97;;;1.10;;
23304;SDS011;11821;51.456;8.844;2023-07-13T08:48:39;2.67;;;1.20;;
23304;SDS011;11821;51.456;8.844;2023-07-13T08:53:36;2.25;;;0.82;;
23304;SDS011;11821;51.456;8.844;2023-07-13T08:56:05;2.15;;;0.93;;
23304;SDS011;11821;51.456;8.844;2023-07-13T08:58:36;2.65;;;1.08;;
23304;SDS011;11821;51.456;8.844;2023-07-13T09:01:08;2.35;;;0.98;;
23304;SDS011;11821;51.456;8.844;2023-07-13T09:03:41;3.10;;;1.27;;
23304;SDS011;11821;51.456;8.844;2023-07-13T09:06:15;2.35;;;1.20;;
23304;SDS011;11821;51.456;8.844;2023-07-13T09:16:22;3.50;;;1.25;;
23304;SDS011;11821;51.456;8.844;2023-07-13T09:18:50;2.80;;;0.98;;
23304;SDS011;11821;51.456;8.844;2023-07-13T09:21:28;2.75;;;0.90;;
23304;SDS011;11821;51.456;8.844;2023-07-13T09:26:53;3.08;;;1.10;;
23304;SDS011;11821;51.456;8.844;2023-07-13T09:29:27;3.92;;;1.23;;
23304;SDS011;11821;51.456;8.844;2023-07-13T09:31:55;1.63;;;0.90;;
23304;SDS011;11821;51.456;8.844;2023-07-13T09:34:24;3.70;;;1.10;;
23304;SDS011;11821;51.456;8.844;2023-07-13T09:36:50;2.65;;;1.33;;
23304;SDS011;11821;51.456;8.844;2023-07-13T09:39:23;2.08;;;1.25;;
23304;SDS011;11821;51.456;8.844;2023-07-13T09:41:53;2.45;;;1.20;;
23304;SDS011;11821;51.456;8.844;2023-07-13T09:44:44;4.18;;;1.20;;
23304;SDS011;11821;51.456;8.844;2023-07-13T09:47:18;4.00;;;1.27;;
23304;SDS011;11821;51.456;8.844;2023-07-13T09:49:54;4.78;;;1.35;;
23304;SDS011;11821;51.456;8.844;2023-07-13T09:52:21;3.00;;;1.25;;
23304;SDS011;11821;51.456;8.844;2023-07-13T09:54:48;2.60;;;1.15;;
23304;SDS011;11821;51.456;8.844;2023-07-13T09:57:17;2.10;;;1.38;;
23304;SDS011;11821;51.456;8.844;2023-07-13T09:59:48;2.83;;;1.33;;
23304;SDS011;11821;51.456;8.844;2023-07-13T10:07:39;4.38;;;1.35;;
23304;SDS011;11821;51.456;8.844;2023-07-13T10:10:18;2.80;;;1.20;;
23304;SDS011;11821;51.456;8.844;2023-07-13T10:12:48;4.05;;;1.70;;
23304;SDS011;11821;51.456;8.844;2023-07-13T10:15:22;6.10;;;1.75;;
23304;SDS011;11821;51.456;8.844;2023-07-13T10:17:51;1.90;;;1.20;;
23304;SDS011;11821;51.456;8.844;2023-07-13T10:20:20;4.63;;;1.58;;
23304;SDS011;11821;51.456;8.844;2023-07-13T10:25:24;2.55;;;1.17;;
23304;SDS011;11821;51.456;8.844;2023-07-13T10:27:53;3.75;;;1.40;;
23304;SDS011;11821;51.456;8.844;2023-07-13T10:30:25;2.70;;;1.58;;
23304;SDS011;11821;51.456;8.844;2023-07-13T10:33:00;4.80;;;1.80;;
23304;SDS011;11821;51.456;8.844;2023-07-13T10:35:29;4.68;;;1.55;;
23304;SDS011;11821;51.456;8.844;2023-07-13T10:37:58;2.17;;;1.27;;
23304;SDS011;11821;51.456;8.844;2023-07-13T10:40:38;3.20;;;1.30;;
23304;SDS011;11821;51.456;8.844;2023-07-13T10:43:16;3.03;;;1.58;;
23304;SDS011;11821;51.456;8.844;2023-07-13T10:45:46;2.33;;;1.33;;
23304;SDS011;11821;51.456;8.844;2023-07-13T10:48:17;2.60;;;1.50;;
23304;SDS011;11821;51.456;8.844;2023-07-13T10:50:44;2.47;;;1.40;;
23304;SDS011;11821;51.456;8.844;2023-07-13T10:53:18;2.17;;;1.38;;
23304;SDS011;11821;51.456;8.844;2023-07-13T11:03:26;6.35;;;1.70;;
23304;SDS011;11821;51.456;8.844;2023-07-13T11:18:49;5.80;;;1.83;;
23304;SDS011;11821;51.456;8.844;2023-07-13T11:21:18;4.15;;;1.40;;
23304;SDS011;11821;51.456;8.844;2023-07-13T11:23:53;4.22;;;1.60;;
23304;SDS011;11821;51.456;8.844;2023-07-13T11:31:52;2.67;;;1.20;;
23304;SDS011;11821;51.456;8.844;2023-07-13T11:34:21;2.25;;;1.33;;
23304;SDS011;11821;51.456;8.844;2023-07-13T11:36:57;1.70;;;1.42;;
23304;SDS011;11821;51.456;8.844;2023-07-13T11:39:32;2.72;;;1.63;;
23304;SDS011;11821;51.456;8.844;2023-07-13T11:42:01;1.38;;;1.20;;
23304;SDS011;11821;51.456;8.844;2023-07-13T11:44:30;3.47;;;1.23;;
23304;SDS011;11821;51.456;8.844;2023-07-13T11:47:00;2.35;;;1.10;;
23304;SDS011;11821;51.456;8.844;2023-07-13T11:49:40;2.80;;;1.10;;
23304;SDS011;11821;51.456;8.844;2023-07-13T11:52:12;3.60;;;1.65;;
23304;SDS011;11821;51.456;8.844;2023-07-13T11:54:49;2.97;;;1.20;;
23304;SDS011;11821;51.456;8.844;2023-07-13T11:57:25;2.55;;;1.20;;
23304;SDS011;11821;51.456;8.844;2023-07-13T12:00:04;2.88;;;1.27;;
23304;SDS011;11821;51.456;8.844;2023-07-13T12:02:42;2.80;;;1.33;;
23304;SDS011;11821;51.456;8.844;2023-07-13T12:05:11;6.18;;;1.52;;
23304;SDS011;11821;51.456;8.844;2023-07-13T12:07:40;4.10;;;1.33;;
23304;SDS011;11821;51.456;8.844;2023-07-13T12:12:57;3.78;;;1.23;;
23304;SDS011;11821;51.456;8.844;2023-07-13T12:15:42;3.50;;;1.40;;
23304;SDS011;11821;51.456;8.844;2023-07-13T12:18:16;3.33;;;1.60;;
23304;SDS011;11821;51.456;8.844;2023-07-13T12:20:49;3.28;;;1.70;;
23304;SDS011;11821;51.456;8.844;2023-07-13T12:25:53;2.53;;;1.30;;
23304;SDS011;11821;51.456;8.844;2023-07-13T12:30:59;3.45;;;1.55;;
23304;SDS011;11821;51.456;8.844;2023-07-13T12:33:30;3.63;;;1.50;;
23304;SDS011;11821;51.456;8.844;2023-07-13T12:35:59;1.90;;;1.50;;
23304;SDS011;11821;51.456;8.844;2023-07-13T12:38:27;3.03;;;1.50;;
23304;SDS011;11821;51.456;8.844;2023-07-13T12:40:55;4.20;;;1.40;;
23304;SDS011;11821;51.456;8.844;2023-07-13T12:43:23;3.63;;;1.52;;
23304;SDS011;11821;51.456;8.844;2023-07-13T12:45:58;2.22;;;1.10;;
23304;SDS011;11821;51.456;8.844;2023-07-13T12:48:29;5.13;;;1.73;;
23304;SDS011;11821;51.456;8.844;2023-07-13T12:51:04;3.50;;;1.67;;
23304;SDS011;11821;51.456;8.844;2023-07-13T12:53:35;3.47;;;1.10;;
23304;SDS011;11821;51.456;8.844;2023-07-13T12:56:08;3.78;;;1.35;;
23304;SDS011;11821;51.456;8.844;2023-07-13T12:58:57;3.90;;;2.03;;
23304;SDS011;11821;51.456;8.844;2023-07-13T13:01:26;2.53;;;1.25;;
23304;SDS011;11821;51.456;8.844;2023-07-13T13:03:54;3.03;;;1.60;;
23304;SDS011;11821;51.456;8.844;2023-07-13T13:06:26;2.50;;;1.38;;
23304;SDS011;11821;51.456;8.844;2023-07-13T13:08:55;5.20;;;1.40;;
23304;SDS011;11821;51.456;8.844;2023-07-13T13:11:24;3.72;;;1.90;;
23304;SDS011;11821;51.456;8.844;2023-07-13T13:13:51;3.17;;;1.70;;
23304;SDS011;11821;51.456;8.844;2023-07-13T13:18:47;2.33;;;1.15;;
23304;SDS011;11821;51.456;8.844;2023-07-13T13:21:15;2.33;;;1.50;;
23304;SDS011;11821;51.456;8.844;2023-07-13T13:23:42;2.88;;;1.38;;
23304;SDS011;11821;51.456;8.844;2023-07-13T13:26:13;1.98;;;1.40;;
23304;SDS011;11821;51.456;8.844;2023-07-13T13:28:43;2.97;;;1.73;;
23304;SDS011;11821;51.456;8.844;2023-07-13T13:31:11;3.38;;;1.35;;
23304;SDS011;11821;51.456;8.844;2023-07-13T13:33:39;3.05;;;1.23;;
23304;SDS011;11821;51.456;8.844;2023-07-13T13:36:15;1.40;;;1.10;;
23304;SDS011;11821;51.456;8.844;2023-07-13T13:41:09;2.78;;;1.10;;
23304;SDS011;11821;51.456;8.844;2023-07-13T13:43:36;4.00;;;1.15;;
23304;SDS011;11821;51.456;8.844;2023-07-13T13:46:03;3.42;;;1.00;;
23304;SDS011;11821;51.456;8.844;2023-07-13T13:48:46;1.80;;;0.95;;
23304;SDS011;11821;51.456;8.844;2023-07-13T13:51:15;2.85;;;1.00;;
23304;SDS011;11821;51.456;8.844;2023-07-13T13:53:46;2.53;;;1.20;;
23304;SDS011;11821;51.456;8.844;2023-07-13T13:56:17;1.77;;;1.20;;
23304;SDS011;11821;51.456;8.844;2023-07-13T13:58:44;2.38;;;1.05;;
23304;SDS011;11821;51.456;8.844;2023-07-13T14:01:18;2.08;;;0.80;;
23304;SDS011;11821;51.456;8.844;2023-07-13T14:03:46;2.97;;;0.85;;
23304;SDS011;11821;51.456;8.844;2023-07-13T14:06:14;1.42;;;0.88;;
23304;SDS011;11821;51.456;8.844;2023-07-13T14:08:41;3.00;;;1.40;;
23304;SDS011;11821;51.456;8.844;2023-07-13T14:11:12;1.58;;;0.95;;
23304;SDS011;11821;51.456;8.844;2023-07-13T14:13:44;1.52;;;1.10;;
23304;SDS011;11821;51.456;8.844;2023-07-13T14:16:15;1.45;;;1.00;;
23304;SDS011;11821;51.456;8.844;2023-07-13T14:18:43;2.25;;;0.98;;
23304;SDS011;11821;51.456;8.844;2023-07-13T14:21:14;1.52;;;0.80;;
23304;SDS011;11821;51.456;8.844;2023-07-13T14:23:43;2.00;;;1.00;;
23304;SDS011;11821;51.456;8.844;2023-07-13T14:26:15;1.17;;;0.90;;
23304;SDS011;11821;51.456;8.844;2023-07-13T14:28:44;2.17;;;0.80;;
23304;SDS011;11821;51.456;8.844;2023-07-13T14:31:16;2.85;;;0.90;;
23304;SDS011;11821;51.456;8.844;2023-07-13T14:33:43;3.03;;;1.55;;
23304;SDS011;11821;51.456;8.844;2023-07-13T14:38:58;2.97;;;0.98;;
23304;SDS011;11821;51.456;8.844;2023-07-13T14:41:31;2.58;;;1.00;;
23304;SDS011;11821;51.456;8.844;2023-07-13T14:43:58;2.03;;;1.00;;
23304;SDS011;11821;51.456;8.844;2023-07-13T14:46:27;3.10;;;1.15;;
23304;SDS011;11821;51.456;8.844;2023-07-13T14:48:59;2.88;;;1.10;;
23304;SDS011;11821;51.456;8.844;2023-07-13T14:51:38;2.58;;;1.10;;
23304;SDS011;11821;51.456;8.844;2023-07-13T14:54:05;3.20;;;1.20;;
23304;SDS011;11821;51.456;8.844;2023-07-13T14:56:34;5.80;;;1.20;;
23304;SDS011;11821;51.456;8.844;2023-07-13T14:59:00;3.47;;;1.17;;
23304;SDS011;11821;51.456;8.844;2023-07-13T15:01:26;1.58;;;0.80;;
23304;SDS011;11821;51.456;8.844;2023-07-13T15:03:53;3.20;;;1.08;;
23304;SDS011;11821;51.456;8.844;2023-07-13T15:06:20;2.08;;;1.17;;
23304;SDS011;11821;51.456;8.844;2023-07-13T15:08:46;1.90;;;1.00;;
23304;SDS011;11821;51.456;8.844;2023-07-13T15:11:14;2.60;;;1.17;;
23304;SDS011;11821;51.456;8.844;2023-07-13T15:13:41;1.85;;;1.10;;
23304;SDS011;11821;51.456;8.844;2023-07-13T15:16:17;2.88;;;0.98;;
23304;SDS011;11821;51.456;8.844;2023-07-13T15:18:47;3.88;;;1.23;;
23304;SDS011;11821;51.456;8.844;2023-07-13T15:21:16;3.60;;;1.10;;
23304;SDS011;11821;51.456;8.844;2023-07-13T15:23:49;4.25;;;1.30;;
23304;SDS011;11821;51.456;8.844;2023-07-13T15:26:17;3.88;;;1.30;;
23304;SDS011;11821;51.456;8.844;2023-07-13T15:28:44;10.00;;;1.70;;
23304;SDS011;11821;51.456;8.844;2023-07-13T15:31:20;7.18;;;1.58;;
23304;SDS011;11821;51.456;8.844;2023-07-13T15:33:50;2.03;;;1.38;;
23304;SDS011;11821;51.456;8.844;2023-07-13T15:36:18;2.70;;;1.42;;
23304;SDS011;11821;51.456;8.844;2023-07-13T15:38:46;2.05;;;1.00;;
23304;SDS011;11821;51.456;8.844;2023-07-13T15:41:18;4.10;;;1.13;;
23304;SDS011;11821;51.456;8.844;2023-07-13T15:43:51;2.75;;;1.20;;
23304;SDS011;11821;51.456;8.844;2023-07-13T15:46:20;2.63;;;1.38;;
23304;SDS011;11821;51.456;8.844;2023-07-13T15:48:48;4.45;;;1.00;;
23304;SDS011;11821;51.456;8.844;2023-07-13T15:51:28;4.60;;;1.20;;
23304;SDS011;11821;51.456;8.844;2023-07-13T15:53:57;2.55;;;1.42;;
23304;SDS011;11821;51.456;8.844;2023-07-13T15:56:29;5.15;;;1.60;;
23304;SDS011;11821;51.456;8.844;2023-07-13T15:58:59;2.50;;;1.42;;
23304;SDS011;11821;51.456;8.844;2023-07-13T16:01:26;3.35;;;1.50;;
23304;SDS011;11821;51.456;8.844;2023-07-13T16:03:52;2.97;;;1.23;;
23304;SDS011;11821;51.456;8.844;2023-07-13T16:06:19;3.83;;;1.40;;